sensor_id;sensor_type;location;lat;lon;timestamp;P1;durP1;ratioP1;P2;durP2;ratioP2
41952;SDS011;63613;28.200;112.870;2024-02-21T04:11:00;44.00;;;20.38;;
41952;SDS011;63613;28.200;112.870;2024-02-21T04:13:32;42.28;;;19.60;;
41952;SDS011;63613;28.200;112.870;2024-02-21T04:16:00;34.60;;;17.42;;
41952;SDS011;63613;28.200;112.870;2024-02-21T04:18:30;36.78;;;16.88;;
41952;SDS011;63613;28.200;112.870;2024-02-21T04:20:59;37.60;;;17.38;;
41952;SDS011;63613;28.200;112.870;2024-02-21T04:23:28;41.75;;;18.52;;
41952;SDS011;63613;28.200;112.870;2024-02-21T04:25:57;33.65;;;16.60;;
41952;SDS011;63613;28.200;112.870;2024-02-21T04:28:26;35.50;;;16.73;;
41952;SDS011;63613;28.200;112.870;2024-02-21T04:30:54;32.78;;;16.90;;
41952;SDS011;63613;28.200;112.870;2024-02-21T04:33:24;31.58;;;16.17;;
41952;SDS011;63613;28.200;112.870;2024-02-21T04:35:52;33.10;;;16.25;;
41952;SDS011;63613;28.200;112.870;2024-02-21T04:38:21;33.20;;;15.23;;
41952;SDS011;63613;28.200;112.870;2024-02-21T04:40:50;36.75;;;16.20;;
41952;SDS011;63613;28.200;112.870;2024-02-21T04:43:19;30.88;;;14.35;;
41952;SDS011;63613;28.200;112.870;2024-02-21T04:45:48;28.85;;;14.43;;
41952;SDS011;63613;28.200;112.870;2024-02-21T04:48:17;28.42;;;14.30;;
41952;SDS011;63613;28.200;112.870;2024-02-21T04:50:46;29.30;;;14.18;;
41952;SDS011;63613;28.200;112.870;2024-02-21T04:53:15;30.42;;;14.00;;
41952;SDS011;63613;28.200;112.870;2024-02-21T04:55:44;24.90;;;12.40;;
41952;SDS011;63613;28.200;112.870;2024-02-21T04:58:14;26.05;;;14.35;;
41952;SDS011;63613;28.200;112.870;2024-02-21T05:00:43;25.73;;;13.82;;
41952;SDS011;63613;28.200;112.870;2024-02-21T05:03:12;25.35;;;13.25;;
41952;SDS011;63613;28.200;112.870;2024-02-21T05:05:40;26.52;;;13.68;;
41952;SDS011;63613;28.200;112.870;2024-02-21T05:08:09;24.60;;;12.38;;
41952;SDS011;63613;28.200;112.870;2024-02-21T05:10:40;30.42;;;13.23;;
41952;SDS011;63613;28.200;112.870;2024-02-21T05:13:09;25.52;;;13.13;;
41952;SDS011;63613;28.200;112.870;2024-02-21T05:15:38;28.17;;;12.57;;
41952;SDS011;63613;28.200;112.870;2024-02-21T05:18:06;21.70;;;12.20;;
41952;SDS011;63613;28.200;112.870;2024-02-21T05:20:35;24.55;;;12.65;;
41952;SDS011;63613;28.200;112.870;2024-02-21T05:23:05;20.13;;;12.20;;
41952;SDS011;63613;28.200;112.870;2024-02-21T05:25:34;21.38;;;12.00;;
41952;SDS011;63613;28.200;112.870;2024-02-21T05:28:03;20.88;;;11.38;;
41952;SDS011;63613;28.200;112.870;2024-02-21T05:30:32;23.45;;;12.02;;
41952;SDS011;63613;28.200;112.870;2024-02-21T05:33:08;22.15;;;11.15;;
41952;SDS011;63613;28.200;112.870;2024-02-21T05:35:37;21.98;;;11.60;;
41952;SDS011;63613;28.200;112.870;2024-02-21T05:38:06;20.90;;;11.95;;
41952;SDS011;63613;28.200;112.870;2024-02-21T05:40:37;21.40;;;11.50;;
41952;SDS011;63613;28.200;112.870;2024-02-21T05:43:07;21.55;;;10.68;;
41952;SDS011;63613;28.200;112.870;2024-02-21T05:45:37;18.30;;;9.60;;
41952;SDS011;63613;28.200;112.870;2024-02-21T05:48:06;20.15;;;9.77;;
41952;SDS011;63613;28.200;112.870;2024-02-21T05:50:34;16.58;;;9.27;;
41952;SDS011;63613;28.200;112.870;2024-02-21T05:53:03;15.70;;;9.13;;
41952;SDS011;63613;28.200;112.870;2024-02-21T05:55:32;16.88;;;9.13;;
41952;SDS011;63613;28.200;112.870;2024-02-21T05:58:01;19.70;;;9.63;;
41952;SDS011;63613;28.200;112.870;2024-02-21T06:00:32;18.90;;;9.57;;
41952;SDS011;63613;28.200;112.870;2024-02-21T06:03:00;17.70;;;9.68;;
41952;SDS011;63613;28.200;112.870;2024-02-21T06:05:30;18.15;;;10.32;;
41952;SDS011;63613;28.200;112.870;2024-02-21T06:08:03;19.35;;;10.02;;
41952;SDS011;63613;28.200;112.870;2024-02-21T06:10:35;16.77;;;9.43;;
41952;SDS011;63613;28.200;112.870;2024-02-21T06:13:04;15.05;;;9.02;;
41952;SDS011;63613;28.200;112.870;2024-02-21T06:15:35;18.17;;;9.13;;
41952;SDS011;63613;28.200;112.870;2024-02-21T06:18:04;14.68;;;8.05;;
41952;SDS011;63613;28.200;112.870;2024-02-21T06:20:33;16.58;;;8.32;;
41952;SDS011;63613;28.200;112.870;2024-02-21T06:23:02;18.77;;;8.20;;
41952;SDS011;63613;28.200;112.870;2024-02-21T06:25:31;16.88;;;9.02;;
41952;SDS011;63613;28.200;112.870;2024-02-21T06:28:00;10.32;;;7.53;;
41952;SDS011;63613;28.200;112.870;2024-02-21T06:30:30;13.80;;;8.52;;
41952;SDS011;63613;28.200;112.870;2024-02-21T06:32:59;15.52;;;8.18;;
41952;SDS011;63613;28.200;112.870;2024-02-21T06:35:28;13.57;;;8.70;;
41952;SDS011;63613;28.200;112.870;2024-02-21T06:37:57;13.25;;;7.70;;
41952;SDS011;63613;28.200;112.870;2024-02-21T06:40:26;15.35;;;8.00;;
41952;SDS011;63613;28.200;112.870;2024-02-21T06:42:56;13.27;;;6.85;;
41952;SDS011;63613;28.200;112.870;2024-02-21T06:45:25;12.60;;;7.55;;
41952;SDS011;63613;28.200;112.870;2024-02-21T06:47:54;14.27;;;7.13;;
41952;SDS011;63613;28.200;112.870;2024-02-21T06:50:22;12.35;;;7.15;;
41952;SDS011;63613;28.200;112.870;2024-02-21T06:52:51;10.40;;;7.28;;
41952;SDS011;63613;28.200;112.870;2024-02-21T06:55:21;10.63;;;6.78;;
41952;SDS011;63613;28.200;112.870;2024-02-21T06:57:50;12.43;;;6.72;;
41952;SDS011;63613;28.200;112.870;2024-02-21T07:00:19;9.98;;;7.35;;
41952;SDS011;63613;28.200;112.870;2024-02-21T07:02:48;9.35;;;6.10;;
41952;SDS011;63613;28.200;112.870;2024-02-21T07:05:16;13.63;;;7.50;;
41952;SDS011;63613;28.200;112.870;2024-02-21T07:07:46;14.00;;;7.30;;
41952;SDS011;63613;28.200;112.870;2024-02-21T07:10:14;11.07;;;6.63;;
41952;SDS011;63613;28.200;112.870;2024-02-21T07:12:43;12.23;;;6.65;;
41952;SDS011;63613;28.200;112.870;2024-02-21T07:15:12;11.85;;;6.95;;
41952;SDS011;63613;28.200;112.870;2024-02-21T07:17:40;11.13;;;6.40;;
41952;SDS011;63613;28.200;112.870;2024-02-21T07:20:11;13.25;;;6.65;;
41952;SDS011;63613;28.200;112.870;2024-02-21T07:22:39;10.95;;;6.47;;
41952;SDS011;63613;28.200;112.870;2024-02-21T07:25:08;10.73;;;6.57;;
41952;SDS011;63613;28.200;112.870;2024-02-21T07:27:37;10.52;;;6.10;;
41952;SDS011;63613;28.200;112.870;2024-02-21T07:30:06;9.27;;;6.15;;
41952;SDS011;63613;28.200;112.870;2024-02-21T07:32:36;10.27;;;6.50;;
41952;SDS011;63613;28.200;112.870;2024-02-21T07:35:04;11.18;;;6.32;;
41952;SDS011;63613;28.200;112.870;2024-02-21T07:37:36;10.02;;;6.28;;
41952;SDS011;63613;28.200;112.870;2024-02-21T07:40:06;9.63;;;5.97;;
41952;SDS011;63613;28.200;112.870;2024-02-21T07:42:41;9.65;;;5.90;;
41952;SDS011;63613;28.200;112.870;2024-02-21T07:45:10;7.45;;;5.60;;
41952;SDS011;63613;28.200;112.870;2024-02-21T07:47:39;10.27;;;5.70;;
41952;SDS011;63613;28.200;112.870;2024-02-21T07:50:08;11.73;;;5.90;;
41952;SDS011;63613;28.200;112.870;2024-02-21T07:52:37;10.13;;;6.03;;
41952;SDS011;63613;28.200;112.870;2024-02-21T07:55:07;8.68;;;5.10;;
41952;SDS011;63613;28.200;112.870;2024-02-21T07:57:36;8.88;;;5.35;;
41952;SDS011;63613;28.200;112.870;2024-02-21T08:00:05;9.60;;;5.60;;
41952;SDS011;63613;28.200;112.870;2024-02-21T08:02:39;8.32;;;5.47;;
41952;SDS011;63613;28.200;112.870;2024-02-21T08:05:11;7.95;;;5.45;;
41952;SDS011;63613;28.200;112.870;2024-02-21T08:07:40;9.57;;;5.50;;
41952;SDS011;63613;28.200;112.870;2024-02-21T08:10:08;7.90;;;5.25;;
41952;SDS011;63613;28.200;112.870;2024-02-21T08:12:38;6.60;;;5.30;;
41952;SDS011;63613;28.200;112.870;2024-02-21T08:15:07;7.18;;;4.97;;
41952;SDS011;63613;28.200;112.870;2024-02-21T08:17:39;6.30;;;5.00;;
41952;SDS011;63613;28.200;112.870;2024-02-21T08:20:08;12.10;;;5.25;;
41952;SDS011;63613;28.200;112.870;2024-02-21T08:22:37;6.90;;;5.05;;
41952;SDS011;63613;28.200;112.870;2024-02-21T08:25:06;7.68;;;5.00;;
41952;SDS011;63613;28.200;112.870;2024-02-21T08:27:35;8.02;;;4.60;;
41952;SDS011;63613;28.200;112.870;2024-02-21T08:30:08;7.45;;;4.80;;
41952;SDS011;63613;28.200;112.870;2024-02-21T08:32:37;6.60;;;4.60;;
41952;SDS011;63613;28.200;112.870;2024-02-21T08:35:06;6.57;;;4.40;;
41952;SDS011;63613;28.200;112.870;2024-02-21T08:37:35;6.22;;;4.82;;
41952;SDS011;63613;28.200;112.870;2024-02-21T08:40:04;8.65;;;4.50;;
41952;SDS011;63613;28.200;112.870;2024-02-21T08:42:36;6.88;;;4.95;;
41952;SDS011;63613;28.200;112.870;2024-02-21T08:45:06;5.47;;;4.65;;
41952;SDS011;63613;28.200;112.870;2024-02-21T08:47:36;6.78;;;4.50;;
41952;SDS011;63613;28.200;112.870;2024-02-21T08:50:08;5.82;;;4.93;;
41952;SDS011;63613;28.200;112.870;2024-02-21T08:52:37;6.60;;;5.20;;
41952;SDS011;63613;28.200;112.870;2024-02-21T08:55:06;6.72;;;4.40;;
41952;SDS011;63613;28.200;112.870;2024-02-21T08:57:35;9.38;;;5.40;;
41952;SDS011;63613;28.200;112.870;2024-02-21T09:00:05;7.60;;;4.85;;
41952;SDS011;63613;28.200;112.870;2024-02-21T09:02:40;6.68;;;4.78;;
41952;SDS011;63613;28.200;112.870;2024-02-21T09:05:09;7.30;;;5.32;;
41952;SDS011;63613;28.200;112.870;2024-02-21T09:07:38;6.40;;;5.50;;
41952;SDS011;63613;28.200;112.870;2024-02-21T09:10:07;6.30;;;5.38;;
41952;SDS011;63613;28.200;112.870;2024-02-21T09:12:36;7.63;;;5.18;;
41952;SDS011;63613;28.200;112.870;2024-02-21T09:15:08;7.57;;;6.50;;
41952;SDS011;63613;28.200;112.870;2024-02-21T09:17:37;14.20;;;7.35;;
41952;SDS011;63613;28.200;112.870;2024-02-21T09:20:06;9.95;;;7.32;;
41952;SDS011;63613;28.200;112.870;2024-02-21T09:22:37;11.60;;;8.95;;
41952;SDS011;63613;28.200;112.870;2024-02-21T09:25:07;10.98;;;8.35;;
41952;SDS011;63613;28.200;112.870;2024-02-21T09:27:38;11.85;;;8.48;;
41952;SDS011;63613;28.200;112.870;2024-02-21T09:30:06;9.05;;;8.15;;
41952;SDS011;63613;28.200;112.870;2024-02-21T09:32:35;9.50;;;8.45;;
41952;SDS011;63613;28.200;112.870;2024-02-21T09:35:05;48.85;;;23.00;;
41952;SDS011;63613;28.200;112.870;2024-02-21T09:37:35;57.88;;;26.90;;
41952;SDS011;63613;28.200;112.870;2024-02-21T09:40:04;49.67;;;24.20;;
41952;SDS011;63613;28.200;112.870;2024-02-21T09:42:37;61.35;;;27.85;;
41952;SDS011;63613;28.200;112.870;2024-02-21T09:45:09;52.67;;;24.53;;
41952;SDS011;63613;28.200;112.870;2024-02-21T09:47:57;47.45;;;23.25;;
41952;SDS011;63613;28.200;112.870;2024-02-21T09:50:38;56.75;;;26.00;;
41952;SDS011;63613;28.200;112.870;2024-02-21T09:53:12;47.83;;;23.30;;
41952;SDS011;63613;28.200;112.870;2024-02-21T09:55:41;46.05;;;23.33;;
41952;SDS011;63613;28.200;112.870;2024-02-21T09:58:12;53.00;;;23.60;;
41952;SDS011;63613;28.200;112.870;2024-02-21T10:00:41;49.03;;;24.25;;
41952;SDS011;63613;28.200;112.870;2024-02-21T10:03:10;53.47;;;26.45;;
41952;SDS011;63613;28.200;112.870;2024-02-21T10:05:45;49.97;;;25.05;;
41952;SDS011;63613;28.200;112.870;2024-02-21T10:08:18;51.20;;;24.15;;
41952;SDS011;63613;28.200;112.870;2024-02-21T10:10:48;46.05;;;23.73;;
41952;SDS011;63613;28.200;112.870;2024-02-21T10:13:24;47.72;;;23.58;;
41952;SDS011;63613;28.200;112.870;2024-02-21T10:16:06;51.45;;;23.02;;
41952;SDS011;63613;28.200;112.870;2024-02-21T10:18:37;53.20;;;25.83;;
41952;SDS011;63613;28.200;112.870;2024-02-21T10:21:07;45.25;;;24.88;;
41952;SDS011;63613;28.200;112.870;2024-02-21T10:23:44;46.35;;;22.67;;
41952;SDS011;63613;28.200;112.870;2024-02-21T10:26:17;50.05;;;23.50;;
41952;SDS011;63613;28.200;112.870;2024-02-21T10:28:47;47.83;;;23.52;;
41952;SDS011;63613;28.200;112.870;2024-02-21T10:31:21;46.47;;;23.52;;
41952;SDS011;63613;28.200;112.870;2024-02-21T10:33:55;40.67;;;22.40;;
41952;SDS011;63613;28.200;112.870;2024-02-21T10:36:25;46.72;;;23.27;;
41952;SDS011;63613;28.200;112.870;2024-02-21T10:38:55;46.53;;;22.35;;
41952;SDS011;63613;28.200;112.870;2024-02-21T10:41:24;47.78;;;22.10;;
41952;SDS011;63613;28.200;112.870;2024-02-21T10:43:54;41.47;;;21.58;;
41952;SDS011;63613;28.200;112.870;2024-02-21T10:46:23;44.35;;;22.73;;
41952;SDS011;63613;28.200;112.870;2024-02-21T10:49:01;43.47;;;22.20;;
41952;SDS011;63613;28.200;112.870;2024-02-21T10:51:38;40.35;;;21.15;;
41952;SDS011;63613;28.200;112.870;2024-02-21T10:54:22;39.03;;;20.90;;
41952;SDS011;63613;28.200;112.870;2024-02-21T10:57:00;38.15;;;19.63;;
41952;SDS011;63613;28.200;112.870;2024-02-21T10:59:30;43.13;;;21.13;;
41952;SDS011;63613;28.200;112.870;2024-02-21T11:02:01;50.17;;;24.05;;
41952;SDS011;63613;28.200;112.870;2024-02-21T11:04:29;52.83;;;23.10;;
41952;SDS011;63613;28.200;112.870;2024-02-21T11:07:04;42.63;;;21.38;;
41952;SDS011;63613;28.200;112.870;2024-02-21T11:09:36;43.60;;;20.95;;
41952;SDS011;63613;28.200;112.870;2024-02-21T11:12:06;46.90;;;21.85;;
41952;SDS011;63613;28.200;112.870;2024-02-21T11:14:37;46.00;;;21.70;;
41952;SDS011;63613;28.200;112.870;2024-02-21T11:17:16;38.28;;;19.42;;
41952;SDS011;63613;28.200;112.870;2024-02-21T11:19:48;38.70;;;20.15;;
41952;SDS011;63613;28.200;112.870;2024-02-21T11:22:18;41.05;;;21.02;;
41952;SDS011;63613;28.200;112.870;2024-02-21T11:24:48;39.15;;;20.70;;
41952;SDS011;63613;28.200;112.870;2024-02-21T11:27:19;36.33;;;19.65;;
41952;SDS011;63613;28.200;112.870;2024-02-21T11:29:55;41.50;;;21.52;;
41952;SDS011;63613;28.200;112.870;2024-02-21T11:32:25;41.55;;;19.17;;
41952;SDS011;63613;28.200;112.870;2024-02-21T11:34:56;38.35;;;20.13;;
41952;SDS011;63613;28.200;112.870;2024-02-21T11:37:31;38.47;;;21.70;;
41952;SDS011;63613;28.200;112.870;2024-02-21T11:40:05;38.65;;;20.05;;
41952;SDS011;63613;28.200;112.870;2024-02-21T11:42:36;40.00;;;18.98;;
41952;SDS011;63613;28.200;112.870;2024-02-21T11:45:04;32.85;;;17.75;;
41952;SDS011;63613;28.200;112.870;2024-02-21T11:47:35;39.08;;;19.95;;
41952;SDS011;63613;28.200;112.870;2024-02-21T11:50:10;35.88;;;20.23;;
41952;SDS011;63613;28.200;112.870;2024-02-21T11:52:38;39.17;;;20.20;;
41952;SDS011;63613;28.200;112.870;2024-02-21T11:55:07;40.20;;;20.13;;
41952;SDS011;63613;28.200;112.870;2024-02-21T11:57:37;35.22;;;18.83;;
41952;SDS011;63613;28.200;112.870;2024-02-21T12:00:13;34.33;;;18.30;;
41952;SDS011;63613;28.200;112.870;2024-02-21T12:02:43;30.90;;;18.10;;
41952;SDS011;63613;28.200;112.870;2024-02-21T12:05:12;34.22;;;18.20;;
41952;SDS011;63613;28.200;112.870;2024-02-21T12:07:41;32.83;;;17.23;;
41952;SDS011;63613;28.200;112.870;2024-02-21T12:10:12;29.70;;;17.30;;
41952;SDS011;63613;28.200;112.870;2024-02-21T12:12:41;29.45;;;16.75;;
41952;SDS011;63613;28.200;112.870;2024-02-21T12:15:10;29.55;;;16.08;;
41952;SDS011;63613;28.200;112.870;2024-02-21T12:17:39;29.70;;;15.95;;
41952;SDS011;63613;28.200;112.870;2024-02-21T12:20:11;28.50;;;15.45;;
41952;SDS011;63613;28.200;112.870;2024-02-21T12:22:42;32.30;;;16.17;;
41952;SDS011;63613;28.200;112.870;2024-02-21T12:25:19;26.80;;;16.02;;
41952;SDS011;63613;28.200;112.870;2024-02-21T12:27:52;28.13;;;14.85;;
41952;SDS011;63613;28.200;112.870;2024-02-21T12:30:23;24.67;;;14.63;;
41952;SDS011;63613;28.200;112.870;2024-02-21T12:32:52;24.73;;;14.20;;
41952;SDS011;63613;28.200;112.870;2024-02-21T12:35:22;26.92;;;15.18;;
41952;SDS011;63613;28.200;112.870;2024-02-21T12:37:51;27.27;;;15.60;;
41952;SDS011;63613;28.200;112.870;2024-02-21T12:40:20;25.60;;;14.75;;
41952;SDS011;63613;28.200;112.870;2024-02-21T12:42:52;27.20;;;15.55;;
41952;SDS011;63613;28.200;112.870;2024-02-21T12:45:20;26.45;;;14.82;;
41952;SDS011;63613;28.200;112.870;2024-02-21T12:47:49;24.85;;;14.02;;
41952;SDS011;63613;28.200;112.870;2024-02-21T12:50:18;25.27;;;13.70;;
41952;SDS011;63613;28.200;112.870;2024-02-21T12:52:48;24.88;;;14.48;;
41952;SDS011;63613;28.200;112.870;2024-02-21T12:55:19;23.95;;;14.35;;
41952;SDS011;63613;28.200;112.870;2024-02-21T12:57:47;23.40;;;13.85;;
41952;SDS011;63613;28.200;112.870;2024-02-21T13:00:16;20.58;;;13.27;;
41952;SDS011;63613;28.200;112.870;2024-02-21T13:02:47;22.35;;;12.95;;
41952;SDS011;63613;28.200;112.870;2024-02-21T13:05:16;21.60;;;12.25;;
41952;SDS011;63613;28.200;112.870;2024-02-21T13:07:46;19.98;;;12.77;;
41952;SDS011;63613;28.200;112.870;2024-02-21T13:10:15;22.90;;;12.18;;
41952;SDS011;63613;28.200;112.870;2024-02-21T13:12:44;20.58;;;12.63;;
41952;SDS011;63613;28.200;112.870;2024-02-21T13:15:13;24.50;;;12.63;;
41952;SDS011;63613;28.200;112.870;2024-02-21T13:17:44;20.10;;;11.45;;
41952;SDS011;63613;28.200;112.870;2024-02-21T13:20:14;19.55;;;11.45;;
41952;SDS011;63613;28.200;112.870;2024-02-21T13:22:42;18.90;;;11.20;;
41952;SDS011;63613;28.200;112.870;2024-02-21T13:25:11;16.83;;;11.10;;
41952;SDS011;63613;28.200;112.870;2024-02-21T13:27:44;18.33;;;11.48;;
41952;SDS011;63613;28.200;112.870;2024-02-21T13:30:13;16.10;;;11.07;;
41952;SDS011;63613;28.200;112.870;2024-02-21T13:32:43;16.42;;;11.10;;
41952;SDS011;63613;28.200;112.870;2024-02-21T13:35:13;18.30;;;11.73;;
41952;SDS011;63613;28.200;112.870;2024-02-21T13:37:42;17.15;;;10.82;;
41952;SDS011;63613;28.200;112.870;2024-02-21T13:40:11;18.30;;;11.55;;
41952;SDS011;63613;28.200;112.870;2024-02-21T13:42:40;17.20;;;11.43;;
41952;SDS011;63613;28.200;112.870;2024-02-21T13:45:09;14.80;;;10.38;;
41952;SDS011;63613;28.200;112.870;2024-02-21T13:47:38;18.80;;;11.23;;
41952;SDS011;63613;28.200;112.870;2024-02-21T13:50:07;18.95;;;11.27;;
41952;SDS011;63613;28.200;112.870;2024-02-21T13:52:37;17.85;;;11.13;;
41952;SDS011;63613;28.200;112.870;2024-02-21T13:55:07;15.70;;;10.45;;
41952;SDS011;63613;28.200;112.870;2024-02-21T13:57:36;16.48;;;10.90;;
41952;SDS011;63613;28.200;112.870;2024-02-21T14:00:05;16.60;;;11.43;;
41952;SDS011;63613;28.200;112.870;2024-02-21T14:02:37;18.48;;;11.52;;
41952;SDS011;63613;28.200;112.870;2024-02-21T14:05:06;14.15;;;10.45;;
41952;SDS011;63613;28.200;112.870;2024-02-21T14:07:37;14.88;;;11.15;;
41952;SDS011;63613;28.200;112.870;2024-02-21T14:10:06;15.50;;;11.63;;
41952;SDS011;63613;28.200;112.870;2024-02-21T14:12:35;12.27;;;9.95;;
41952;SDS011;63613;28.200;112.870;2024-02-21T14:15:04;15.93;;;11.23;;
41952;SDS011;63613;28.200;112.870;2024-02-21T14:17:33;15.15;;;11.45;;
41952;SDS011;63613;28.200;112.870;2024-02-21T14:20:04;15.43;;;11.68;;
41952;SDS011;63613;28.200;112.870;2024-02-21T14:22:35;14.75;;;10.48;;
41952;SDS011;63613;28.200;112.870;2024-02-21T14:25:04;16.98;;;11.30;;
41952;SDS011;63613;28.200;112.870;2024-02-21T14:27:33;16.45;;;11.32;;
41952;SDS011;63613;28.200;112.870;2024-02-21T14:30:02;15.77;;;11.57;;
41952;SDS011;63613;28.200;112.870;2024-02-21T14:32:32;14.10;;;10.45;;
41952;SDS011;63613;28.200;112.870;2024-02-21T14:35:01;13.93;;;11.07;;
41952;SDS011;63613;28.200;112.870;2024-02-21T14:37:30;15.15;;;11.73;;
41952;SDS011;63613;28.200;112.870;2024-02-21T14:39:59;13.52;;;10.50;;
41952;SDS011;63613;28.200;112.870;2024-02-21T14:42:28;12.63;;;10.43;;
41952;SDS011;63613;28.200;112.870;2024-02-21T14:44:57;14.32;;;11.05;;
41952;SDS011;63613;28.200;112.870;2024-02-21T14:47:31;14.23;;;10.85;;
41952;SDS011;63613;28.200;112.870;2024-02-21T14:50:00;17.80;;;12.07;;
41952;SDS011;63613;28.200;112.870;2024-02-21T14:52:31;14.60;;;11.43;;
41952;SDS011;63613;28.200;112.870;2024-02-21T14:55:00;13.75;;;11.15;;
41952;SDS011;63613;28.200;112.870;2024-02-21T14:57:29;14.65;;;11.75;;
41952;SDS011;63613;28.200;112.870;2024-02-21T15:00:00;14.15;;;11.57;;
41952;SDS011;63613;28.200;112.870;2024-02-21T15:02:34;16.95;;;11.95;;
41952;SDS011;63613;28.200;112.870;2024-02-21T15:05:02;13.85;;;10.60;;
41952;SDS011;63613;28.200;112.870;2024-02-21T15:07:32;14.60;;;12.05;;
41952;SDS011;63613;28.200;112.870;2024-02-21T15:10:02;13.07;;;11.05;;
41952;SDS011;63613;28.200;112.870;2024-02-21T15:12:32;15.07;;;12.23;;
41952;SDS011;63613;28.200;112.870;2024-02-21T15:15:01;12.68;;;10.43;;
41952;SDS011;63613;28.200;112.870;2024-02-21T15:17:30;13.85;;;11.10;;
41952;SDS011;63613;28.200;112.870;2024-02-21T15:20:01;13.77;;;11.05;;
41952;SDS011;63613;28.200;112.870;2024-02-21T15:22:33;13.35;;;10.82;;
41952;SDS011;63613;28.200;112.870;2024-02-21T15:25:02;13.30;;;11.60;;
41952;SDS011;63613;28.200;112.870;2024-02-21T15:27:31;14.68;;;11.35;;
41952;SDS011;63613;28.200;112.870;2024-02-21T15:30:03;13.75;;;11.73;;
41952;SDS011;63613;28.200;112.870;2024-02-21T15:32:33;14.40;;;11.60;;
41952;SDS011;63613;28.200;112.870;2024-02-21T15:35:04;14.07;;;11.55;;
41952;SDS011;63613;28.200;112.870;2024-02-21T15:37:33;13.90;;;11.75;;
41952;SDS011;63613;28.200;112.870;2024-02-21T15:40:02;13.98;;;12.00;;
41952;SDS011;63613;28.200;112.870;2024-02-21T15:42:34;12.25;;;10.68;;
41952;SDS011;63613;28.200;112.870;2024-02-21T15:45:03;15.55;;;11.23;;
41952;SDS011;63613;28.200;112.870;2024-02-21T15:47:33;15.32;;;12.40;;
41952;SDS011;63613;28.200;112.870;2024-02-21T15:50:01;12.85;;;11.52;;
41952;SDS011;63613;28.200;112.870;2024-02-21T15:52:30;12.95;;;11.40;;
41952;SDS011;63613;28.200;112.870;2024-02-21T15:55:00;13.68;;;11.57;;
41952;SDS011;63613;28.200;112.870;2024-02-21T15:57:28;13.65;;;11.45;;
41952;SDS011;63613;28.200;112.870;2024-02-21T15:59:58;15.07;;;11.75;;
41952;SDS011;63613;28.200;112.870;2024-02-21T16:02:27;13.05;;;10.95;;
41952;SDS011;63613;28.200;112.870;2024-02-21T16:04:55;12.40;;;11.10;;
41952;SDS011;63613;28.200;112.870;2024-02-21T16:07:26;12.57;;;11.20;;
41952;SDS011;63613;28.200;112.870;2024-02-21T16:09:55;13.13;;;11.85;;
41952;SDS011;63613;28.200;112.870;2024-02-21T16:12:24;13.73;;;11.15;;
41952;SDS011;63613;28.200;112.870;2024-02-21T16:14:53;12.48;;;11.18;;
41952;SDS011;63613;28.200;112.870;2024-02-21T16:17:22;15.07;;;11.52;;
41952;SDS011;63613;28.200;112.870;2024-02-21T16:19:51;12.93;;;11.07;;
41952;SDS011;63613;28.200;112.870;2024-02-21T16:22:21;13.35;;;11.18;;
41952;SDS011;63613;28.200;112.870;2024-02-21T16:24:51;13.38;;;11.15;;
41952;SDS011;63613;28.200;112.870;2024-02-21T16:27:20;13.77;;;11.55;;
41952;SDS011;63613;28.200;112.870;2024-02-21T16:29:50;12.98;;;11.27;;
41952;SDS011;63613;28.200;112.870;2024-02-21T16:32:19;13.13;;;11.73;;
41952;SDS011;63613;28.200;112.870;2024-02-21T16:34:48;13.07;;;11.77;;
41952;SDS011;63613;28.200;112.870;2024-02-21T16:37:17;12.57;;;10.93;;
41952;SDS011;63613;28.200;112.870;2024-02-21T16:39:47;13.90;;;11.70;;
41952;SDS011;63613;28.200;112.870;2024-02-21T16:42:17;13.32;;;11.57;;
41952;SDS011;63613;28.200;112.870;2024-02-21T16:44:46;11.73;;;10.50;;
41952;SDS011;63613;28.200;112.870;2024-02-21T16:47:16;12.60;;;11.20;;
41952;SDS011;63613;28.200;112.870;2024-02-21T16:49:45;13.70;;;12.27;;
41952;SDS011;63613;28.200;112.870;2024-02-21T16:52:15;13.68;;;12.25;;
41952;SDS011;63613;28.200;112.870;2024-02-21T16:54:45;13.27;;;11.88;;
41952;SDS011;63613;28.200;112.870;2024-02-21T16:57:15;13.93;;;12.13;;
41952;SDS011;63613;28.200;112.870;2024-02-21T16:59:43;13.32;;;11.93;;
41952;SDS011;63613;28.200;112.870;2024-02-21T17:02:12;13.98;;;12.57;;
41952;SDS011;63613;28.200;112.870;2024-02-21T17:04:42;13.40;;;11.88;;
41952;SDS011;63613;28.200;112.870;2024-02-21T17:07:11;13.18;;;11.82;;
41952;SDS011;63613;28.200;112.870;2024-02-21T17:09:40;12.18;;;10.95;;
41952;SDS011;63613;28.200;112.870;2024-02-21T17:12:09;13.18;;;11.88;;
41952;SDS011;63613;28.200;112.870;2024-02-21T17:14:38;13.07;;;11.77;;
41952;SDS011;63613;28.200;112.870;2024-02-21T17:17:06;13.13;;;11.73;;
41952;SDS011;63613;28.200;112.870;2024-02-21T17:19:36;12.60;;;11.30;;
41952;SDS011;63613;28.200;112.870;2024-02-21T17:22:05;12.68;;;11.38;;
41952;SDS011;63613;28.200;112.870;2024-02-21T17:24:34;11.95;;;10.70;;
41952;SDS011;63613;28.200;112.870;2024-02-21T17:27:03;12.45;;;9.73;;
41952;SDS011;63613;28.200;112.870;2024-02-21T17:29:32;10.45;;;9.35;;
41952;SDS011;63613;28.200;112.870;2024-02-21T17:32:02;11.10;;;9.85;;
41952;SDS011;63613;28.200;112.870;2024-02-21T17:34:31;10.38;;;9.32;;
41952;SDS011;63613;28.200;112.870;2024-02-21T17:37:00;11.55;;;10.23;;
41952;SDS011;63613;28.200;112.870;2024-02-21T17:39:29;10.52;;;9.45;;
41952;SDS011;63613;28.200;112.870;2024-02-21T17:41:58;10.73;;;9.73;;
41952;SDS011;63613;28.200;112.870;2024-02-21T17:44:27;10.55;;;9.45;;
41952;SDS011;63613;28.200;112.870;2024-02-21T17:46:56;10.70;;;9.60;;
41952;SDS011;63613;28.200;112.870;2024-02-21T17:49:25;10.93;;;9.80;;
41952;SDS011;63613;28.200;112.870;2024-02-21T17:51:53;11.07;;;9.75;;
41952;SDS011;63613;28.200;112.870;2024-02-21T17:54:23;10.75;;;9.73;;
41952;SDS011;63613;28.200;112.870;2024-02-21T17:56:53;10.32;;;9.32;;
41952;SDS011;63613;28.200;112.870;2024-02-21T17:59:23;11.05;;;9.65;;
41952;SDS011;63613;28.200;112.870;2024-02-21T18:01:51;10.52;;;9.20;;
41952;SDS011;63613;28.200;112.870;2024-02-21T18:04:20;10.98;;;9.45;;
41952;SDS011;63613;28.200;112.870;2024-02-21T18:06:49;11.35;;;9.57;;
41952;SDS011;63613;28.200;112.870;2024-02-21T18:09:18;11.00;;;8.68;;
41952;SDS011;63613;28.200;112.870;2024-02-21T18:11:48;10.32;;;9.30;;
41952;SDS011;63613;28.200;112.870;2024-02-21T18:14:17;10.60;;;9.50;;
41952;SDS011;63613;28.200;112.870;2024-02-21T18:16:47;10.70;;;9.70;;
41952;SDS011;63613;28.200;112.870;2024-02-21T18:19:16;10.70;;;9.60;;
41952;SDS011;63613;28.200;112.870;2024-02-21T18:21:47;11.45;;;10.30;;
41952;SDS011;63613;28.200;112.870;2024-02-21T18:24:17;11.15;;;10.00;;
41952;SDS011;63613;28.200;112.870;2024-02-21T18:26:47;10.90;;;9.90;;